Portada
METAR-TAF:

METAR-TAF

Aeropuertos :

Independence Municipal Airport

Independence, Iowa, Estados Unidos

latitud: 42-27N, longitud: 091-56W, altitud: 298 m

Observación

El informe se hizo hace 23 minutos, a las 18:55 UTC
Viento 10 kt del norte-noroeste
Temperatura 20°C
Humedad 88%
Presión 1024 hPa
Visibilidad: 16.1 km
Cielo cubierto a una altura de 1200 ft

METAR: KIIB 191855Z AUTO 33010KT 10SM OVC012 20/18 A3025 RMK AO2 T01990177

Hora: 14:18 (19:18 UTC)


TAF: falta

Observaciones y pronósticos meteorológicos de más de 4000 aeropuertos (mensajes METAR y TAF).

Los puntos amarillos y rojos representan las estaciones disponibles.

Ponga el ratón en el punto deseado para ver el nombre de la estación.

Haga clic para ver las observaciones y los pronósticos meteorológicos.

Para cambiar el mapa : haga clic en los botones verdes con una cruz de color negro para hacer un zoom, en el botón verde con un guión para alejar o en las flechas verdes para mapas adyacentes.


METAR-TAF: